Time;durP1;ratioP1;P1;durP2;ratioP2;P2;SDS_P1;SDS_P2;PMS_P1;PMS_P2;Temp;Humidity;BMP_temperature;BMP_pressure;BME280_temperature;BME280_humidity;BME280_pressure;Samples;Min_cycle;Max_cycle;Signal;HPM_P1;HPM_P2
2022/07/14 00:00:10;;;;;;;1.58;1.05;;;;;;;;;;4918797;29;20087;-77
2022/07/14 00:02:36;;;;;;;1.65;1.40;;;;;;;;;;4903385;29;20052;-78
2022/07/14 00:05:04;;;;;;;2.58;1.25;;;;;;;;;;4903669;29;20562;-78
2022/07/14 00:07:30;;;;;;;2.28;1.40;;;;;;;;;;4923251;29;20076;-78
2022/07/14 00:09:57;;;;;;;1.92;1.35;;;;;;;;;;4923578;29;20143;-78
2022/07/14 00:12:24;;;;;;;2.97;1.20;;;;;;;;;;4909010;29;20052;-78
2022/07/14 00:14:51;;;;;;;1.63;1.13;;;;;;;;;;4892612;29;20115;-78
2022/07/14 00:17:17;;;;;;;2.75;1.10;;;;;;;;;;4905982;29;20104;-77
2022/07/14 00:19:44;;;;;;;1.30;1.05;;;;;;;;;;4921088;29;20606;-78
2022/07/14 00:22:11;;;;;;;2.85;1.05;;;;;;;;;;4939319;29;20052;-79
2022/07/14 00:24:38;;;;;;;2.15;1.10;;;;;;;;;;4923458;29;20168;-78
2022/07/14 00:27:05;;;;;;;2.05;1.15;;;;;;;;;;4918917;29;20138;-77
2022/07/14 00:29:31;;;;;;;2.83;1.05;;;;;;;;;;4917149;29;20059;-77
2022/07/14 00:31:58;;;;;;;1.23;1.10;;;;;;;;;;4917702;29;20048;-77
2022/07/14 00:34:26;;;;;;;3.25;1.40;;;;;;;;;;4934230;29;20060;-77
2022/07/14 00:36:52;;;;;;;2.95;1.13;;;;;;;;;;4918306;29;20071;-77
2022/07/14 00:39:19;;;;;;;2.38;1.20;;;;;;;;;;4916440;29;20067;-77
2022/07/14 00:41:46;;;;;;;1.40;1.10;;;;;;;;;;4932277;29;20126;-77
2022/07/14 00:44:12;;;;;;;1.63;1.40;;;;;;;;;;4916197;29;20139;-77
2022/07/14 00:46:39;;;;;;;4.78;1.27;;;;;;;;;;4932166;29;20075;-77
2022/07/14 00:49:06;;;;;;;2.55;1.10;;;;;;;;;;4900481;29;20138;-76
2022/07/14 00:51:33;;;;;;;3.72;1.00;;;;;;;;;;4931829;29;20142;-76
2022/07/14 00:53:59;;;;;;;3.03;1.20;;;;;;;;;;4931871;29;20512;-76
2022/07/14 00:56:26;;;;;;;3.38;1.00;;;;;;;;;;4916336;29;20086;-76
2022/07/14 00:58:53;;;;;;;1.08;0.90;;;;;;;;;;4915833;29;20062;-76
2022/07/14 01:01:20;;;;;;;3.25;1.20;;;;;;;;;;4916184;29;20092;-76
2022/07/14 01:03:47;;;;;;;2.10;1.00;;;;;;;;;;4915847;29;20051;-76
2022/07/14 01:06:13;;;;;;;2.38;1.38;;;;;;;;;;4915861;29;20048;-76
2022/07/14 01:08:40;;;;;;;1.77;1.23;;;;;;;;;;4915878;29;20082;-77
2022/07/14 01:11:08;;;;;;;2.42;1.20;;;;;;;;;;4900457;29;20111;-76
2022/07/14 01:13:36;;;;;;;1.13;1.02;;;;;;;;;;4900207;29;20048;-76
2022/07/14 01:16:04;;;;;;;1.50;1.02;;;;;;;;;;4915598;29;20124;-77
2022/07/14 01:18:32;;;;;;;4.13;1.17;;;;;;;;;;4916405;29;20052;-76
2022/07/14 01:20:59;;;;;;;1.33;1.02;;;;;;;;;;4916208;29;20643;-76
2022/07/14 01:23:26;;;;;;;2.85;1.30;;;;;;;;;;4931729;29;20091;-77
2022/07/14 01:25:52;;;;;;;1.77;1.13;;;;;;;;;;4902260;29;20052;-78
2022/07/14 01:28:19;;;;;;;3.00;1.20;;;;;;;;;;4935723;29;20485;-77
2022/07/14 01:30:46;;;;;;;3.63;1.42;;;;;;;;;;4936810;29;20429;-77
2022/07/14 01:33:13;;;;;;;4.32;1.40;;;;;;;;;;4921378;29;20075;-78
2022/07/14 01:35:40;;;;;;;3.00;1.25;;;;;;;;;;4917805;29;20169;-77
2022/07/14 01:38:07;;;;;;;1.88;1.30;;;;;;;;;;4931614;29;20084;-77
2022/07/14 01:40:33;;;;;;;2.42;1.75;;;;;;;;;;4931614;29;20090;-77
2022/07/14 01:43:00;;;;;;;2.33;1.30;;;;;;;;;;4915607;29;20083;-77
2022/07/14 01:45:27;;;;;;;2.92;1.40;;;;;;;;;;4946268;29;20103;-76
2022/07/14 01:47:54;;;;;;;1.52;1.38;;;;;;;;;;4934513;29;20074;-76
2022/07/14 01:50:21;;;;;;;3.10;1.10;;;;;;;;;;4928283;29;20571;-77
2022/07/14 01:52:48;;;;;;;2.45;1.10;;;;;;;;;;4934625;29;20064;-77
2022/07/14 01:55:14;;;;;;;1.90;1.00;;;;;;;;;;4952538;29;20063;-76
2022/07/14 01:57:41;;;;;;;2.45;1.25;;;;;;;;;;4950438;29;20063;-77
2022/07/14 02:00:09;;;;;;;2.97;1.23;;;;;;;;;;4934212;29;20143;-77
2022/07/14 02:02:36;;;;;;;2.60;1.65;;;;;;;;;;4916037;29;20052;-77
2022/07/14 02:05:03;;;;;;;2.35;1.40;;;;;;;;;;4916231;29;20056;-77
2022/07/14 02:07:30;;;;;;;1.50;1.40;;;;;;;;;;4934778;29;20044;-78
2022/07/14 02:12:42;;;;;;;1.73;1.35;;;;;;;;;;4922209;29;20139;-77
2022/07/14 02:15:09;;;;;;;1.75;1.10;;;;;;;;;;4900726;29;20084;-77
2022/07/14 02:17:36;;;;;;;1.98;1.40;;;;;;;;;;4899572;29;20516;-77
2022/07/14 02:20:03;;;;;;;3.58;1.33;;;;;;;;;;4915075;29;20146;-78
2022/07/14 02:22:30;;;;;;;1.40;1.30;;;;;;;;;;4917289;29;20561;-77
2022/07/14 02:24:56;;;;;;;2.42;1.55;;;;;;;;;;4915150;29;20054;-77
2022/07/14 02:27:23;;;;;;;3.10;1.75;;;;;;;;;;4922268;29;20052;-78
2022/07/14 02:29:50;;;;;;;2.15;1.58;;;;;;;;;;4919791;29;20140;-78
2022/07/14 02:32:17;;;;;;;1.50;1.30;;;;;;;;;;4918006;29;20172;-78
2022/07/14 02:34:43;;;;;;;1.33;1.23;;;;;;;;;;4919757;29;20088;-77
2022/07/14 02:37:10;;;;;;;4.55;1.70;;;;;;;;;;4930519;29;20416;-76
2022/07/14 02:39:37;;;;;;;4.22;1.52;;;;;;;;;;4914611;29;20074;-76
2022/07/14 02:42:03;;;;;;;1.30;1.20;;;;;;;;;;4914878;29;20078;-76
2022/07/14 02:44:30;;;;;;;2.78;1.50;;;;;;;;;;4914653;29;20062;-77
2022/07/14 02:46:57;;;;;;;3.28;1.40;;;;;;;;;;4930750;29;20416;-76
2022/07/14 02:49:24;;;;;;;1.88;1.50;;;;;;;;;;4914803;29;20052;-75
2022/07/14 02:51:50;;;;;;;2.28;1.50;;;;;;;;;;4899497;29;20131;-77
2022/07/14 02:54:17;;;;;;;2.65;1.40;;;;;;;;;;4914582;29;20060;-75
2022/07/14 02:56:45;;;;;;;2.63;1.30;;;;;;;;;;4914730;29;20478;-75
2022/07/14 02:59:12;;;;;;;1.83;1.48;;;;;;;;;;4929900;29;20076;-76
2022/07/14 03:01:39;;;;;;;3.05;1.80;;;;;;;;;;4914824;29;20060;-76
2022/07/14 03:04:06;;;;;;;2.05;1.60;;;;;;;;;;4930354;29;20485;-76
2022/07/14 03:06:33;;;;;;;3.28;1.60;;;;;;;;;;4899608;29;20056;-76
2022/07/14 03:09:00;;;;;;;1.88;1.60;;;;;;;;;;4914598;29;20131;-76
2022/07/14 03:11:27;;;;;;;2.13;1.50;;;;;;;;;;4899260;29;20052;-76
2022/07/14 03:13:54;;;;;;;2.60;1.50;;;;;;;;;;4914475;29;20058;-76
2022/07/14 03:16:21;;;;;;;1.88;1.30;;;;;;;;;;4914695;29;20142;-76
2022/07/14 03:18:47;;;;;;;3.90;1.40;;;;;;;;;;4930540;29;20052;-76
2022/07/14 03:21:14;;;;;;;1.40;1.30;;;;;;;;;;4931725;29;20525;-77
2022/07/14 03:23:41;;;;;;;2.38;1.30;;;;;;;;;;4915614;29;20060;-78
2022/07/14 03:26:09;;;;;;;1.77;1.45;;;;;;;;;;4899673;29;20132;-76
2022/07/14 03:28:36;;;;;;;1.40;1.30;;;;;;;;;;4930399;29;20147;-76
2022/07/14 03:31:03;;;;;;;1.58;1.33;;;;;;;;;;4930022;29;20135;-75
2022/07/14 03:33:33;;;;;;;1.75;1.40;;;;;;;;;;4914164;29;20086;-76
2022/07/14 03:36:00;;;;;;;3.40;1.50;;;;;;;;;;4929944;29;20531;-76
2022/07/14 03:38:27;;;;;;;4.97;1.83;;;;;;;;;;4917130;29;20124;-76
2022/07/14 03:41:06;;;;;;;2.75;1.30;;;;;;;;;;4899156;29;20501;-76
2022/07/14 03:43:34;;;;;;;2.95;1.50;;;;;;;;;;4899610;29;20112;-76
2022/07/14 03:46:02;;;;;;;2.67;1.90;;;;;;;;;;4900328;29;20092;-76
2022/07/14 03:48:29;;;;;;;2.08;1.40;;;;;;;;;;4883725;29;20052;-75
2022/07/14 03:50:56;;;;;;;4.68;1.70;;;;;;;;;;4899226;29;20112;-75
2022/07/14 03:53:23;;;;;;;2.15;1.63;;;;;;;;;;4899028;29;20099;-76
2022/07/14 03:55:49;;;;;;;1.67;1.30;;;;;;;;;;4901507;29;20059;-76
2022/07/14 03:58:19;;;;;;;1.70;1.40;;;;;;;;;;4901516;29;20489;-75
2022/07/14 04:00:45;;;;;;;1.67;1.40;;;;;;;;;;4933812;29;20138;-75
2022/07/14 04:03:12;;;;;;;2.65;1.30;;;;;;;;;;4933365;29;20509;-76
2022/07/14 04:05:39;;;;;;;2.05;1.48;;;;;;;;;;4917900;29;20504;-76
2022/07/14 04:08:06;;;;;;;3.75;1.63;;;;;;;;;;4933191;29;20062;-76
2022/07/14 04:10:33;;;;;;;5.13;2.22;;;;;;;;;;4933588;29;20079;-76
2022/07/14 04:13:00;;;;;;;2.55;1.73;;;;;;;;;;4932987;29;20143;-76
2022/07/14 04:15:28;;;;;;;2.97;1.70;;;;;;;;;;4900902;29;20566;-76
2022/07/14 04:17:55;;;;;;;3.22;1.60;;;;;;;;;;4932682;29;20056;-75
2022/07/14 04:20:22;;;;;;;3.30;1.65;;;;;;;;;;4932119;29;20447;-75
2022/07/14 04:22:49;;;;;;;5.97;1.60;;;;;;;;;;4932369;29;20098;-77
2022/07/14 04:25:16;;;;;;;1.55;1.45;;;;;;;;;;4916731;29;20469;-75
2022/07/14 04:27:43;;;;;;;1.77;1.30;;;;;;;;;;4932253;29;20052;-75
2022/07/14 04:30:11;;;;;;;4.30;1.65;;;;;;;;;;4916280;29;20523;-76
2022/07/14 04:32:38;;;;;;;2.50;1.67;;;;;;;;;;4932323;29;20056;-75
2022/07/14 04:35:05;;;;;;;1.95;1.23;;;;;;;;;;4932346;29;20056;-75
2022/07/14 04:37:32;;;;;;;3.78;1.83;;;;;;;;;;4916689;29;20151;-75
2022/07/14 04:39:59;;;;;;;2.30;2.00;;;;;;;;;;4916593;29;20112;-77
2022/07/14 04:42:26;;;;;;;2.65;1.70;;;;;;;;;;4891587;29;20098;-76
2022/07/14 04:44:54;;;;;;;1.48;1.30;;;;;;;;;;4894378;29;20098;-77
2022/07/14 04:47:21;;;;;;;1.63;1.50;;;;;;;;;;4917293;29;20131;-75
2022/07/14 04:52:33;;;;;;;1.95;1.45;;;;;;;;;;4917968;29;20056;-78
2022/07/14 04:54:59;;;;;;;1.70;1.60;;;;;;;;;;4900756;29;20511;-78
2022/07/14 04:57:27;;;;;;;5.57;1.90;;;;;;;;;;4903385;29;20147;-78
2022/07/14 04:59:59;;;;;;;2.95;1.70;;;;;;;;;;4932773;29;20072;-78
2022/07/14 05:02:25;;;;;;;3.67;1.30;;;;;;;;;;4913966;29;20117;-79
2022/07/14 05:04:53;;;;;;;1.77;1.48;;;;;;;;;;4911813;29;20605;-77
2022/07/14 05:07:19;;;;;;;3.13;1.92;;;;;;;;;;4895768;29;20584;-77
2022/07/14 05:09:46;;;;;;;4.10;1.58;;;;;;;;;;4896953;29;20048;-76
2022/07/14 05:12:16;;;;;;;5.97;1.85;;;;;;;;;;4929995;29;20119;-78
2022/07/14 05:14:43;;;;;;;3.72;2.33;;;;;;;;;;4930080;29;20337;-77
2022/07/14 05:17:10;;;;;;;2.35;1.85;;;;;;;;;;4914287;29;20096;-77
2022/07/14 05:19:41;;;;;;;4.13;2.10;;;;;;;;;;4899217;29;20088;-76
2022/07/14 05:22:08;;;;;;;5.25;2.05;;;;;;;;;;4929809;29;20056;-77
2022/07/14 05:24:35;;;;;;;2.30;1.55;;;;;;;;;;4913886;29;20146;-77
2022/07/14 05:27:02;;;;;;;3.85;1.70;;;;;;;;;;4914221;29;20099;-77
2022/07/14 05:29:29;;;;;;;2.13;1.90;;;;;;;;;;4929709;29;20067;-77
2022/07/14 05:31:57;;;;;;;4.65;2.00;;;;;;;;;;4914079;29;20142;-78
2022/07/14 05:34:31;;;;;;;6.45;2.28;;;;;;;;;;4929073;29;20084;-77
2022/07/14 05:36:59;;;;;;;5.47;1.92;;;;;;;;;;4914375;29;20093;-77
2022/07/14 05:39:26;;;;;;;4.82;1.80;;;;;;;;;;4913702;29;20056;-77
2022/07/14 05:41:53;;;;;;;2.40;1.70;;;;;;;;;;4898291;29;20056;-76
2022/07/14 05:44:20;;;;;;;2.25;1.52;;;;;;;;;;4913728;29;20237;-77
2022/07/14 05:46:46;;;;;;;2.97;1.63;;;;;;;;;;4929296;29;20054;-76
2022/07/14 05:49:13;;;;;;;2.47;1.70;;;;;;;;;;4929132;29;20143;-76
2022/07/14 05:51:45;;;;;;;3.33;1.80;;;;;;;;;;4913821;29;20516;-74
2022/07/14 05:54:12;;;;;;;2.25;1.67;;;;;;;;;;4929349;29;20372;-75
2022/07/14 05:56:39;;;;;;;2.15;1.77;;;;;;;;;;4913481;29;20492;-75
2022/07/14 05:59:06;;;;;;;3.40;1.48;;;;;;;;;;4928842;29;20099;-75
2022/07/14 06:01:52;;;;;;;4.22;1.63;;;;;;;;;;4926435;29;20424;-76
2022/07/14 06:04:19;;;;;;;2.63;2.22;;;;;;;;;;4928825;29;20505;-76
2022/07/14 06:06:47;;;;;;;4.40;2.10;;;;;;;;;;4914540;29;20052;-75
2022/07/14 06:09:15;;;;;;;3.72;1.67;;;;;;;;;;4897528;29;20584;-77
2022/07/14 06:11:43;;;;;;;3.63;1.45;;;;;;;;;;4913698;29;20139;-76
2022/07/14 06:14:10;;;;;;;4.78;1.65;;;;;;;;;;4915887;29;20063;-76
2022/07/14 06:16:39;;;;;;;4.05;1.65;;;;;;;;;;4912855;29;20052;-75
2022/07/14 06:19:06;;;;;;;3.20;1.48;;;;;;;;;;4916700;29;20080;-75
2022/07/14 06:21:41;;;;;;;1.85;1.55;;;;;;;;;;4922949;29;20505;-76
2022/07/14 06:24:08;;;;;;;4.40;1.83;;;;;;;;;;4895997;29;20052;-76
2022/07/14 06:26:35;;;;;;;6.68;1.83;;;;;;;;;;4919623;29;20518;-76
2022/07/14 06:29:02;;;;;;;1.73;1.60;;;;;;;;;;4903373;29;20052;-76
2022/07/14 06:31:29;;;;;;;2.45;1.48;;;;;;;;;;4895897;29;20048;-76
2022/07/14 06:33:55;;;;;;;2.53;1.70;;;;;;;;;;4916767;29;20044;-77
2022/07/14 06:36:22;;;;;;;4.90;1.70;;;;;;;;;;4911400;29;20058;-76
2022/07/14 06:38:49;;;;;;;4.00;1.80;;;;;;;;;;4911766;29;20044;-76
2022/07/14 06:41:15;;;;;;;3.28;1.50;;;;;;;;;;4911537;29;20191;-76
2022/07/14 06:43:42;;;;;;;3.70;1.45;;;;;;;;;;4912898;29;20138;-76
2022/07/14 06:46:14;;;;;;;2.05;1.67;;;;;;;;;;4912690;29;20044;-76
2022/07/14 06:48:41;;;;;;;6.60;2.20;;;;;;;;;;4907206;29;20084;-75
2022/07/14 06:51:07;;;;;;;6.78;1.77;;;;;;;;;;4912923;29;20155;-75
2022/07/14 06:53:35;;;;;;;5.35;1.63;;;;;;;;;;4909860;29;20056;-75
2022/07/14 06:56:02;;;;;;;4.05;1.45;;;;;;;;;;4913100;29;20141;-76
2022/07/14 06:58:30;;;;;;;3.17;1.45;;;;;;;;;;4912457;29;20564;-76
2022/07/14 07:00:56;;;;;;;3.33;1.00;;;;;;;;;;4908025;29;20048;-75
2022/07/14 07:03:23;;;;;;;3.00;1.50;;;;;;;;;;4920320;29;20139;-75
2022/07/14 07:08:35;;;;;;;6.95;2.75;;;;;;;;;;4913591;29;20078;-76
2022/07/14 07:11:02;;;;;;;4.40;2.13;;;;;;;;;;4921156;29;20131;-76
2022/07/14 07:13:29;;;;;;;4.10;2.28;;;;;;;;;;4915568;29;20135;-76
2022/07/14 07:15:57;;;;;;;3.65;2.42;;;;;;;;;;4899447;29;20120;-76
2022/07/14 07:18:24;;;;;;;2.85;1.27;;;;;;;;;;4901063;29;20320;-76
2022/07/14 07:20:51;;;;;;;2.00;1.20;;;;;;;;;;4916143;29;20060;-76
2022/07/14 07:23:18;;;;;;;4.10;1.38;;;;;;;;;;4916582;29;20056;-75
2022/07/14 07:25:45;;;;;;;2.50;1.73;;;;;;;;;;4916142;29;20138;-76
2022/07/14 07:28:12;;;;;;;4.28;1.63;;;;;;;;;;4916051;29;20126;-76
2022/07/14 07:30:38;;;;;;;3.60;1.65;;;;;;;;;;4916403;29;20083;-76
2022/07/14 07:33:05;;;;;;;5.88;1.67;;;;;;;;;;4916569;29;20052;-76
2022/07/14 07:35:32;;;;;;;2.97;1.60;;;;;;;;;;4915667;29;20707;-76
2022/07/14 07:38:05;;;;;;;4.20;1.80;;;;;;;;;;4918472;29;20086;-76
2022/07/14 07:40:32;;;;;;;2.33;1.70;;;;;;;;;;4915167;29;20086;-76
2022/07/14 07:42:58;;;;;;;3.28;1.52;;;;;;;;;;4923907;29;20507;-76
2022/07/14 07:45:25;;;;;;;3.22;1.52;;;;;;;;;;4923468;29;20052;-75
2022/07/14 07:47:52;;;;;;;3.80;1.25;;;;;;;;;;4915731;29;20532;-75
2022/07/14 07:50:19;;;;;;;5.45;1.60;;;;;;;;;;4917030;29;20083;-76
2022/07/14 07:52:46;;;;;;;2.58;1.60;;;;;;;;;;4915668;29;20056;-76
2022/07/14 07:55:13;;;;;;;3.30;1.50;;;;;;;;;;4915709;29;20052;-76
2022/07/14 07:57:52;;;;;;;3.75;1.95;;;;;;;;;;4923068;29;20103;-76
2022/07/14 08:00:19;;;;;;;3.55;1.67;;;;;;;;;;4924429;29;20083;-76
2022/07/14 08:02:48;;;;;;;1.98;1.25;;;;;;;;;;4917200;29;20409;-75
2022/07/14 08:05:17;;;;;;;3.33;1.30;;;;;;;;;;4916706;29;20426;-76
2022/07/14 08:08:07;;;;;;;2.63;1.30;;;;;;;;;;4922536;29;20058;-76
2022/07/14 08:10:34;;;;;;;3.13;1.83;;;;;;;;;;4899913;29;20056;-76
2022/07/14 08:13:01;;;;;;;6.03;3.83;;;;;;;;;;4915352;29;20417;-76
2022/07/14 08:15:28;;;;;;;6.38;1.70;;;;;;;;;;4922863;29;20048;-76
2022/07/14 08:17:55;;;;;;;2.00;1.35;;;;;;;;;;4915368;29;20496;-76
2022/07/14 08:20:22;;;;;;;1.98;1.10;;;;;;;;;;4915598;29;20127;-76
2022/07/14 08:22:49;;;;;;;2.47;1.30;;;;;;;;;;4914705;29;20579;-75
2022/07/14 08:25:16;;;;;;;1.30;1.13;;;;;;;;;;4915076;29;20393;-76
2022/07/14 08:27:42;;;;;;;1.98;1.20;;;;;;;;;;4914977;29;20142;-76
2022/07/14 08:30:09;;;;;;;5.10;0.95;;;;;;;;;;4914993;29;20076;-75
2022/07/14 08:32:49;;;;;;;4.25;1.20;;;;;;;;;;4915157;29;20522;-75
2022/07/14 08:35:19;;;;;;;1.30;1.20;;;;;;;;;;4907713;29;20058;-75
2022/07/14 08:37:46;;;;;;;1.42;1.25;;;;;;;;;;4912448;29;20054;-76
2022/07/14 08:40:15;;;;;;;3.50;1.42;;;;;;;;;;4914678;29;20048;-75
2022/07/14 08:42:43;;;;;;;3.50;1.23;;;;;;;;;;4900183;29;20098;-75
2022/07/14 08:45:12;;;;;;;2.95;1.52;;;;;;;;;;4931652;29;20062;-76
2022/07/14 08:47:41;;;;;;;5.10;2.15;;;;;;;;;;4932067;29;20052;-77
2022/07/14 08:50:10;;;;;;;3.72;2.35;;;;;;;;;;4931719;29;20099;-76
2022/07/14 08:52:38;;;;;;;8.23;3.33;;;;;;;;;;4916680;29;20063;-76
2022/07/14 08:55:07;;;;;;;7.28;2.10;;;;;;;;;;4915583;29;20548;-76
2022/07/14 08:57:35;;;;;;;4.40;1.83;;;;;;;;;;4914871;29;20064;-78
2022/07/14 09:00:09;;;;;;;11.48;1.90;;;;;;;;;;4930860;29;20048;-78
2022/07/14 09:02:37;;;;;;;5.80;1.60;;;;;;;;;;4915602;29;20060;-77
2022/07/14 09:05:24;;;;;;;6.07;1.73;;;;;;;;;;4928362;29;20056;-77
2022/07/14 09:07:58;;;;;;;2.30;1.35;;;;;;;;;;4915226;29;20135;-77
2022/07/14 09:10:27;;;;;;;6.60;1.92;;;;;;;;;;4900279;29;20587;-76
2022/07/14 09:13:17;;;;;;;2.60;1.48;;;;;;;;;;4931052;29;20103;-76
2022/07/14 09:15:45;;;;;;;2.90;1.13;;;;;;;;;;4906849;29;20088;-76
2022/07/14 09:18:23;;;;;;;5.35;1.40;;;;;;;;;;4896894;29;20528;-77
2022/07/14 09:20:52;;;;;;;4.50;1.42;;;;;;;;;;4899830;29;20099;-76
2022/07/14 09:23:35;;;;;;;1.67;1.30;;;;;;;;;;4899484;29;20545;-76
2022/07/14 09:26:17;;;;;;;4.75;1.30;;;;;;;;;;4895326;29;20535;-77
2022/07/14 09:28:47;;;;;;;3.90;1.00;;;;;;;;;;4913405;29;20420;-77
2022/07/14 09:31:23;;;;;;;1.58;1.20;;;;;;;;;;4915214;29;20048;-77
2022/07/14 09:33:51;;;;;;;4.63;1.63;;;;;;;;;;4923622;29;20565;-77
2022/07/14 09:36:20;;;;;;;2.35;1.20;;;;;;;;;;4904883;29;20078;-77
2022/07/14 09:38:47;;;;;;;3.63;1.40;;;;;;;;;;4895055;29;20092;-77
2022/07/14 09:41:21;;;;;;;6.43;1.25;;;;;;;;;;4904696;29;20080;-77
2022/07/14 09:44:14;;;;;;;2.13;1.50;;;;;;;;;;4891344;29;20082;-77
2022/07/14 09:46:49;;;;;;;2.38;1.10;;;;;;;;;;4912030;29;20087;-78
2022/07/14 09:49:18;;;;;;;2.97;1.45;;;;;;;;;;4914427;29;20501;-78
2022/07/14 09:51:52;;;;;;;3.83;1.65;;;;;;;;;;4906327;29;20167;-77
2022/07/14 09:54:44;;;;;;;4.75;1.35;;;;;;;;;;4931051;29;20095;-77
2022/07/14 09:57:13;;;;;;;0.98;0.90;;;;;;;;;;4913285;29;20135;-77
2022/07/14 09:59:54;;;;;;;6.88;1.25;;;;;;;;;;4917114;29;20103;-77
2022/07/14 10:02:26;;;;;;;1.83;1.02;;;;;;;;;;4906920;29;20143;-77
2022/07/14 10:05:01;;;;;;;5.45;1.00;;;;;;;;;;4898450;29;20123;-77
2022/07/14 10:07:34;;;;;;;5.13;1.10;;;;;;;;;;4891394;29;20147;-77
2022/07/14 10:10:11;;;;;;;1.27;0.70;;;;;;;;;;4922394;29;20052;-77
2022/07/14 10:12:41;;;;;;;4.57;1.15;;;;;;;;;;4911010;29;20308;-77
2022/07/14 10:15:10;;;;;;;3.15;0.90;;;;;;;;;;4897130;29;20056;-77
2022/07/14 10:17:39;;;;;;;2.05;1.05;;;;;;;;;;4912482;29;20067;-78
2022/07/14 10:20:08;;;;;;;2.45;1.08;;;;;;;;;;4896490;29;20056;-78
2022/07/14 10:22:36;;;;;;;3.60;1.00;;;;;;;;;;4911415;29;20266;-77
2022/07/14 10:25:04;;;;;;;1.10;1.00;;;;;;;;;;4880482;29;20091;-79
2022/07/14 10:27:41;;;;;;;1.30;1.00;;;;;;;;;;4904006;29;20127;-78
2022/07/14 10:30:09;;;;;;;2.07;1.00;;;;;;;;;;4896484;29;20086;-77
2022/07/14 10:32:57;;;;;;;1.20;1.10;;;;;;;;;;4912457;29;20052;-78
2022/07/14 10:35:33;;;;;;;3.10;0.90;;;;;;;;;;4894985;29;20071;-77
2022/07/14 10:38:17;;;;;;;9.52;1.20;;;;;;;;;;4907987;29;20127;-77
2022/07/14 10:41:05;;;;;;;2.15;1.02;;;;;;;;;;4893719;29;20053;-77
2022/07/14 10:43:42;;;;;;;3.30;0.82;;;;;;;;;;4895359;29;20060;-76
2022/07/14 10:46:08;;;;;;;3.03;0.93;;;;;;;;;;4914147;29;20528;-77
2022/07/14 10:48:36;;;;;;;4.10;1.00;;;;;;;;;;4884903;29;20127;-77
2022/07/14 10:51:22;;;;;;;7.18;1.38;;;;;;;;;;4910276;29;20127;-77
2022/07/14 10:54:04;;;;;;;1.77;0.90;;;;;;;;;;4902364;29;20194;-76
2022/07/14 10:57:13;;;;;;;3.17;1.00;;;;;;;;;;4904431;29;20048;-76
2022/07/14 10:59:41;;;;;;;1.48;0.77;;;;;;;;;;4918965;29;20060;-76
2022/07/14 11:02:14;;;;;;;6.00;1.15;;;;;;;;;;4924462;29;20044;-76
2022/07/14 11:04:57;;;;;;;2.83;1.08;;;;;;;;;;4918403;29;20056;-78
2022/07/14 11:07:38;;;;;;;2.35;1.00;;;;;;;;;;4924729;29;20056;-76
2022/07/14 11:10:14;;;;;;;4.13;1.10;;;;;;;;;;4915959;29;20055;-75
2022/07/14 11:13:00;;;;;;;2.13;1.02;;;;;;;;;;4931994;29;20056;-76
2022/07/14 11:15:50;;;;;;;1.50;0.80;;;;;;;;;;4931734;29;20111;-76
2022/07/14 11:18:21;;;;;;;5.68;1.00;;;;;;;;;;4918552;29;20427;-77
2022/07/14 11:21:05;;;;;;;3.97;1.00;;;;;;;;;;4917187;29;20050;-76
2022/07/14 11:23:48;;;;;;;1.55;1.10;;;;;;;;;;4915342;29;20052;-76
2022/07/14 11:26:36;;;;;;;4.60;1.15;;;;;;;;;;4918132;29;20134;-75
2022/07/14 11:29:12;;;;;;;3.05;1.15;;;;;;;;;;4907523;29;20508;-75
2022/07/14 11:31:49;;;;;;;1.52;1.05;;;;;;;;;;4918651;29;20130;-76
2022/07/14 11:37:10;;;;;;;2.67;1.20;;;;;;;;;;4904521;29;20103;-76
2022/07/14 11:39:57;;;;;;;5.53;1.27;;;;;;;;;;4903562;29;20044;-76
2022/07/14 11:42:24;;;;;;;1.95;1.27;;;;;;;;;;4918146;29;20142;-76
2022/07/14 11:44:52;;;;;;;4.22;1.00;;;;;;;;;;4914915;29;20056;-76
2022/07/14 11:47:21;;;;;;;2.08;1.20;;;;;;;;;;4919310;29;20055;-77
2022/07/14 11:49:53;;;;;;;3.78;1.20;;;;;;;;;;4902689;29;20080;-76
2022/07/14 11:52:34;;;;;;;5.05;1.67;;;;;;;;;;4887754;29;20512;-76
2022/07/14 11:55:04;;;;;;;3.25;1.00;;;;;;;;;;4903294;29;20056;-76
2022/07/14 11:57:30;;;;;;;1.20;1.10;;;;;;;;;;4900669;29;20143;-76
2022/07/14 12:00:08;;;;;;;3.05;1.17;;;;;;;;;;4914928;29;20544;-76
2022/07/14 12:02:51;;;;;;;6.00;1.27;;;;;;;;;;4885361;29;20056;-76
2022/07/14 12:05:21;;;;;;;1.75;1.25;;;;;;;;;;4885856;29;20071;-76
2022/07/14 12:07:50;;;;;;;4.05;1.10;;;;;;;;;;4884581;29;20056;-76
2022/07/14 12:10:41;;;;;;;5.05;1.20;;;;;;;;;;4914584;29;20567;-77
2022/07/14 12:13:08;;;;;;;1.67;1.30;;;;;;;;;;4915047;29;20135;-76
2022/07/14 12:15:36;;;;;;;2.70;1.02;;;;;;;;;;4915553;29;20116;-76
2022/07/14 12:18:05;;;;;;;1.40;1.00;;;;;;;;;;4921672;29;20060;-76
2022/07/14 12:20:46;;;;;;;3.85;1.15;;;;;;;;;;4912333;29;20476;-76
2022/07/14 12:23:14;;;;;;;5.45;1.27;;;;;;;;;;4915657;29;20139;-76
2022/07/14 12:25:43;;;;;;;2.92;1.15;;;;;;;;;;4899699;29;20048;-75
2022/07/14 12:28:11;;;;;;;2.83;1.00;;;;;;;;;;4899956;29;20084;-76
2022/07/14 12:30:44;;;;;;;2.03;1.30;;;;;;;;;;4883654;29;20078;-75
2022/07/14 12:33:13;;;;;;;4.68;1.30;;;;;;;;;;4906682;29;20049;-76
2022/07/14 12:35:40;;;;;;;3.90;1.42;;;;;;;;;;4897317;29;20134;-77
2022/07/14 12:38:08;;;;;;;3.83;1.20;;;;;;;;;;4897731;29;20056;-77
2022/07/14 12:40:41;;;;;;;3.33;1.25;;;;;;;;;;4899979;29;20135;-78
2022/07/14 12:43:17;;;;;;;2.95;1.13;;;;;;;;;;4916600;29;20090;-84
2022/07/14 12:46:04;;;;;;;8.18;1.23;;;;;;;;;;4882409;29;20390;-75
2022/07/14 12:48:34;;;;;;;3.85;1.10;;;;;;;;;;4906522;29;20058;-77
2022/07/14 12:51:26;;;;;;;5.03;1.27;;;;;;;;;;4930529;29;20115;-76
2022/07/14 12:54:04;;;;;;;1.90;1.13;;;;;;;;;;4914331;29;20056;-77
2022/07/14 12:56:45;;;;;;;3.22;1.10;;;;;;;;;;4915668;29;20128;-78
2022/07/14 12:59:19;;;;;;;3.87;1.50;;;;;;;;;;4892655;29;20113;-75
2022/07/14 13:01:59;;;;;;;9.07;1.08;;;;;;;;;;4898908;29;20693;-75
2022/07/14 13:04:40;;;;;;;3.22;1.27;;;;;;;;;;4897874;29;20062;-76
2022/07/14 13:07:27;;;;;;;3.20;1.10;;;;;;;;;;4913862;29;20143;-75
2022/07/14 13:10:10;;;;;;;3.15;1.10;;;;;;;;;;4921518;29;20497;-74
2022/07/14 13:12:45;;;;;;;4.78;1.20;;;;;;;;;;4912988;29;20144;-75
2022/07/14 13:15:19;;;;;;;3.15;1.20;;;;;;;;;;4914545;29;20064;-76
2022/07/14 13:18:03;;;;;;;6.90;1.10;;;;;;;;;;4914155;29;20501;-74
2022/07/14 13:21:03;;;;;;;6.07;1.20;;;;;;;;;;4920506;29;20052;-75
2022/07/14 13:23:35;;;;;;;6.18;1.33;;;;;;;;;;4906351;29;20462;-74
2022/07/14 13:26:11;;;;;;;;;;;;;;;;;;4911173;29;20513;-75
2022/07/14 13:28:52;;;;;;;5.55;1.83;;;;;;;;;;4926190;29;19927;-75
2022/07/14 13:31:22;;;;;;;3.30;1.10;;;;;;;;;;4897506;29;20139;-75
2022/07/14 13:33:52;;;;;;;3.33;1.15;;;;;;;;;;4915955;29;20059;-76
2022/07/14 13:36:19;;;;;;;5.50;1.00;;;;;;;;;;4912698;29;20555;-75
2022/07/14 13:38:46;;;;;;;3.03;0.85;;;;;;;;;;4910436;29;20054;-75
2022/07/14 13:41:14;;;;;;;5.50;1.10;;;;;;;;;;4912582;29;20135;-74
2022/07/14 13:43:42;;;;;;;5.40;1.05;;;;;;;;;;4912630;29;20572;-75
2022/07/14 13:46:10;;;;;;;6.40;1.50;;;;;;;;;;4912299;29;20056;-75
2022/07/14 13:48:38;;;;;;;6.55;1.30;;;;;;;;;;4912399;29;20480;-74
2022/07/14 13:53:51;;;;;;;6.32;1.30;;;;;;;;;;4913255;29;20148;-75
2022/07/14 13:56:18;;;;;;;2.97;0.90;;;;;;;;;;4912430;29;20052;-75
2022/07/14 13:58:44;;;;;;;2.65;1.00;;;;;;;;;;4912627;29;20135;-77
2022/07/14 14:01:17;;;;;;;4.10;1.25;;;;;;;;;;4911486;29;20044;-77
2022/07/14 14:03:44;;;;;;;1.70;1.10;;;;;;;;;;4897380;29;20092;-79
2022/07/14 14:06:31;;;;;;;6.68;1.40;;;;;;;;;;4913512;29;20052;-76
2022/07/14 14:08:58;;;;;;;2.78;1.00;;;;;;;;;;4915810;29;20499;-78
2022/07/14 14:11:25;;;;;;;5.50;1.20;;;;;;;;;;4883915;29;20143;-79
2022/07/14 14:13:52;;;;;;;4.53;1.05;;;;;;;;;;4895609;29;20334;-76
2022/07/14 14:16:19;;;;;;;3.25;1.15;;;;;;;;;;4913708;29;20151;-78
2022/07/14 14:18:46;;;;;;;2.58;0.93;;;;;;;;;;4913335;29;20056;-76
2022/07/14 14:21:13;;;;;;;5.75;1.38;;;;;;;;;;4903151;29;20493;-76
2022/07/14 14:23:41;;;;;;;6.05;1.38;;;;;;;;;;4913250;29;20056;-76
2022/07/14 14:26:08;;;;;;;5.43;1.30;;;;;;;;;;4920861;29;20138;-76
2022/07/14 14:28:35;;;;;;;2.38;1.15;;;;;;;;;;4912858;29;20497;-80
2022/07/14 14:31:02;;;;;;;3.78;1.70;;;;;;;;;;4913482;29;20103;-76
2022/07/14 14:33:29;;;;;;;2.88;1.45;;;;;;;;;;4912763;29;20404;-76
2022/07/14 14:35:56;;;;;;;1.75;1.33;;;;;;;;;;4897750;29;20062;-75
2022/07/14 14:38:23;;;;;;;2.47;0.90;;;;;;;;;;4912915;29;20424;-76
2022/07/14 14:40:50;;;;;;;1.27;1.17;;;;;;;;;;4897541;29;20098;-77
2022/07/14 14:43:17;;;;;;;2.70;1.20;;;;;;;;;;4912718;29;20095;-77
2022/07/14 14:45:46;;;;;;;8.07;1.30;;;;;;;;;;4909989;29;20060;-77
2022/07/14 14:48:14;;;;;;;6.15;1.42;;;;;;;;;;4907313;29;20052;-77
2022/07/14 14:50:41;;;;;;;1.65;1.05;;;;;;;;;;4905214;29;20099;-77
2022/07/14 14:53:08;;;;;;;3.63;1.17;;;;;;;;;;4914395;29;20095;-76
2022/07/14 14:55:35;;;;;;;2.05;1.48;;;;;;;;;;4922997;29;20087;-83
2022/07/14 14:58:01;;;;;;;3.60;1.10;;;;;;;;;;4919730;29;20079;-77
2022/07/14 15:00:29;;;;;;;4.30;1.00;;;;;;;;;;4915849;29;20076;-78
2022/07/14 15:02:56;;;;;;;3.40;1.20;;;;;;;;;;4910006;29;20056;-77
2022/07/14 15:05:23;;;;;;;2.65;1.08;;;;;;;;;;4912778;29;20160;-79
2022/07/14 15:07:50;;;;;;;1.50;1.00;;;;;;;;;;4913195;29;20112;-78
2022/07/14 15:10:17;;;;;;;4.18;1.20;;;;;;;;;;4912440;29;20142;-77
2022/07/14 15:12:46;;;;;;;4.72;1.33;;;;;;;;;;4913850;29;20090;-79